createdAt,value
2022-08-08T00:01:06.652Z,99988.78
2022-08-08T00:04:16.247Z,99985.56
2022-08-08T00:07:08.904Z,99989.56
2022-08-08T00:09:52.728Z,99991.56
2022-08-08T00:12:32.118Z,99990.63
2022-08-08T00:15:04.808Z,99993.22
2022-08-08T00:18:13.150Z,99982.00
2022-08-08T00:20:51.930Z,99980.53
2022-08-08T00:23:42.809Z,99977.53
2022-08-08T00:26:36.335Z,99974.19
2022-08-08T00:29:08.098Z,99983.16
2022-08-08T00:32:21.262Z,99984.34
2022-08-08T00:34:57.144Z,99978.19
2022-08-08T00:38:02.262Z,99982.50
2022-08-08T00:41:12.008Z,99982.50
2022-08-08T00:43:20.377Z,99993.69
2022-08-08T00:45:56.584Z,99988.09
2022-08-08T00:49:00.957Z,99989.97
2022-08-08T00:51:38.833Z,99989.63
2022-08-08T00:54:22.619Z,99982.13
2022-08-08T00:57:34.021Z,99978.41
2022-08-08T01:00:14.407Z,99973.19
2022-08-08T01:04:01.316Z,99978.03
2022-08-08T01:06:48.188Z,99970.97
2022-08-08T01:09:35.518Z,99974.88
2022-08-08T01:12:36.894Z,99979.75
2022-08-08T01:15:26.049Z,99977.28
2022-08-08T01:18:50.512Z,99972.06
2022-08-08T01:22:07.358Z,99973.41
2022-08-08T01:24:38.667Z,99978.06
2022-08-08T01:27:16.122Z,99972.13
2022-08-08T01:30:15.305Z,99972.16
2022-08-08T01:33:27.639Z,99975.19
2022-08-08T01:36:22.930Z,99960.66
2022-08-08T01:39:05.314Z,99959.91
2022-08-08T01:41:54.462Z,99958.81
2022-08-08T01:44:55.809Z,99958.44
2022-08-08T01:48:16.205Z,99959.41
2022-08-08T01:50:42.849Z,99966.28
2022-08-08T01:55:16.959Z,99968.91
2022-08-08T01:58:11.979Z,99974.56
2022-08-08T02:00:32.103Z,99980.00
2022-08-08T02:03:54.865Z,99981.84
2022-08-08T02:06:04.522Z,99982.81
2022-08-08T02:08:47.244Z,99981.91
2022-08-08T02:11:58.878Z,99985.78
2022-08-08T02:14:55.641Z,99986.34
2022-08-08T02:17:46.663Z,99990.47
2022-08-08T02:21:01.970Z,99996.47
2022-08-08T02:23:35.409Z,100001.88
2022-08-08T02:26:12.048Z,99987.91
2022-08-08T02:28:56.226Z,99984.91
2022-08-08T02:31:58.390Z,99997.25
2022-08-08T02:35:07.660Z,99989.22
2022-08-08T02:37:58.086Z,99983.81
2022-08-08T02:40:45.260Z,99977.28
2022-08-08T02:44:37.555Z,99979.50
2022-08-08T02:46:47.561Z,99972.78
2022-08-08T02:49:48.226Z,99978.38
2022-08-08T02:52:39.088Z,99979.28
2022-08-08T02:55:19.933Z,99985.66
2022-08-08T02:58:26.422Z,99986.22
2022-08-08T03:01:20.269Z,99988.81
2022-08-08T03:05:04.389Z,99996.50
2022-08-08T03:07:02.744Z,99996.50
2022-08-08T03:10:17.912Z,99989.59
2022-08-08T03:16:01.429Z,99990.53
2022-08-08T03:16:36.409Z,100013.50
2022-08-08T03:19:20.071Z,100013.50
2022-08-08T03:21:58.398Z,100009.03
2022-08-08T03:24:29.449Z,100002.66
2022-08-08T03:27:18.988Z,100012.00
2022-08-08T03:29:57.035Z,99998.19
2022-08-08T03:32:53.330Z,99991.28
2022-08-08T03:35:30.132Z,99993.72
2022-08-08T03:38:54.213Z,99992.97
2022-08-08T03:40:55.846Z,99992.78
2022-08-08T03:43:31.634Z,99992.97
2022-08-08T03:46:09.467Z,99991.13
2022-08-08T03:49:56.676Z,99981.78
2022-08-08T03:51:50.389Z,99988.13
2022-08-08T03:54:52.117Z,99987.38
2022-08-08T03:58:33.654Z,99999.31
2022-08-08T04:00:18.610Z,99997.47
2022-08-08T04:02:57.000Z,100010.88
2022-08-08T04:05:29.283Z,100016.13
2022-08-08T04:08:04.337Z,100016.88
2022-08-08T04:10:36.082Z,100022.28
2022-08-08T04:13:18.231Z,100026.19
2022-08-08T04:16:05.349Z,100035.16
2022-08-08T04:18:41.871Z,100029.72
2022-08-08T04:21:13.042Z,100024.69
2022-08-08T04:24:11.684Z,100028.63
2022-08-08T04:26:40.060Z,100023.94
2022-08-08T04:29:21.786Z,100017.03
2022-08-08T04:31:58.572Z,100026.00
2022-08-08T04:34:32.393Z,100016.47
2022-08-08T04:37:12.531Z,100020.53
2022-08-08T04:40:04.199Z,100028.41
2022-08-08T04:42:34.092Z,100024.28
2022-08-08T04:45:05.607Z,100031.34
2022-08-08T04:47:36.406Z,100033.19
2022-08-08T04:50:24.396Z,100033.19
2022-08-08T04:53:00.684Z,100042.13
2022-08-08T04:55:46.979Z,100045.66
2022-08-08T04:58:21.846Z,100042.88
2022-08-08T05:00:51.756Z,100051.66
2022-08-08T05:04:09.918Z,100049.22
2022-08-08T05:06:25.775Z,100046.44
2022-08-08T05:09:02.896Z,100050.31
2022-08-08T05:11:38.766Z,100048.66
2022-08-08T05:14:11.940Z,100044.19
2022-08-08T05:16:49.321Z,100032.41
2022-08-08T05:20:11.495Z,100041.38
2022-08-08T05:22:13.925Z,100044.19
2022-08-08T05:24:48.677Z,100039.09
2022-08-08T05:27:18.855Z,100038.00
2022-08-08T05:29:51.951Z,100042.84
2022-08-08T05:32:26.883Z,100051.41
2022-08-08T05:35:04.623Z,100054.00
2022-08-08T05:37:53.418Z,100063.31
2022-08-08T05:40:59.130Z,100066.66
2022-08-08T05:43:39.717Z,100071.28
2022-08-08T05:46:24.556Z,100069.00
2022-08-08T05:48:55.578Z,100065.78
2022-08-08T05:51:48.202Z,100079.72
2022-08-08T05:54:27.508Z,100081.91
2022-08-08T05:57:57.784Z,100083.47
2022-08-08T06:00:23.408Z,100090.91
2022-08-08T06:03:23.635Z,100087.34
2022-08-08T06:06:07.730Z,100091.72
2022-08-08T06:08:53.044Z,100092.97
2022-08-08T06:11:28.024Z,100094.56
2022-08-08T06:13:56.784Z,100111.25
2022-08-08T06:16:30.277Z,100104.50
2022-08-08T06:19:07.229Z,100104.84
2022-08-08T06:21:57.772Z,100102.34
2022-08-08T06:24:47.072Z,100098.63
2022-08-08T06:27:17.928Z,100099.16
2022-08-08T06:30:20.410Z,100093.84
2022-08-08T06:33:02.907Z,100094.13
2022-08-08T06:36:06.772Z,100107.47
2022-08-08T06:38:28.717Z,100097.28
2022-08-08T06:41:04.806Z,100101.13
2022-08-08T06:43:37.205Z,100099.06
2022-08-08T06:46:13.314Z,100098.06
2022-08-08T06:48:46.153Z,100100.63
2022-08-08T06:51:14.493Z,100102.84
2022-08-08T06:53:50.854Z,100088.75
2022-08-08T06:56:25.214Z,100097.25
2022-08-08T06:58:56.119Z,100093.50
2022-08-08T07:02:17.476Z,100102.66
2022-08-08T07:04:45.390Z,100113.19
2022-08-08T07:07:23.770Z,100114.09
2022-08-08T07:10:03.867Z,100116.75
2022-08-08T07:12:58.271Z,100110.72
2022-08-08T07:16:03.791Z,100114.28
2022-08-08T07:19:24.128Z,100117.81
2022-08-08T07:22:05.513Z,100123.34
2022-08-08T07:24:51.183Z,100123.19
2022-08-08T07:27:27.891Z,100136.84
2022-08-08T07:30:21.253Z,100134.72
2022-08-08T07:32:59.478Z,100130.09
2022-08-08T07:35:30.974Z,100141.09
2022-08-08T07:38:10.488Z,100141.75
2022-08-08T07:41:05.198Z,100151.13
2022-08-08T07:43:37.752Z,100149.34
2022-08-08T07:46:24.365Z,100155.22
2022-08-08T07:49:02.509Z,100150.84
2022-08-08T07:51:44.811Z,100145.78
2022-08-08T07:54:43.075Z,100141.41
2022-08-08T07:57:50.256Z,100141.47
2022-08-08T08:00:44.123Z,100131.97
2022-08-08T08:03:24.070Z,100141.50
2022-08-08T08:06:03.898Z,100146.53
2022-08-08T08:08:52.042Z,100148.94
2022-08-08T08:11:34.081Z,100150.34
2022-08-08T08:14:29.323Z,100158.09
2022-08-08T08:17:00.816Z,100158.09
2022-08-08T08:19:45.813Z,100160.91
2022-08-08T08:22:31.481Z,100171.03
2022-08-08T08:25:08.088Z,100170.16
2022-08-08T08:27:46.633Z,100172.94
2022-08-08T08:30:15.373Z,100176.50
2022-08-08T08:32:51.202Z,100184.81
2022-08-08T08:35:29.377Z,100186.94
2022-08-08T08:38:15.722Z,100186.63
2022-08-08T08:40:52.142Z,100189.75
2022-08-08T08:43:26.905Z,100191.66
2022-08-08T08:46:05.591Z,100189.38
2022-08-08T08:48:34.841Z,100178.88
2022-08-08T08:51:03.748Z,100175.88
2022-08-08T08:53:59.081Z,100181.47
2022-08-08T08:56:28.592Z,100178.69
2022-08-08T08:59:03.234Z,100182.53
2022-08-08T09:01:43.844Z,100174.50
2022-08-08T09:04:30.352Z,100174.53
2022-08-08T09:07:22.674Z,100168.06
2022-08-08T09:09:58.290Z,100161.50
2022-08-08T09:12:45.460Z,100151.44
2022-08-08T09:15:14.679Z,100152.41
2022-08-08T09:17:55.341Z,100153.38
2022-08-08T09:22:00.316Z,100157.09
2022-08-08T09:23:25.302Z,100153.38
2022-08-08T09:26:09.397Z,100146.81
2022-08-08T09:28:43.493Z,100137.50
2022-08-08T09:31:42.246Z,100135.06
2022-08-08T09:34:32.209Z,100131.50
2022-08-08T09:37:57.905Z,100138.59
2022-08-08T09:40:04.653Z,100131.31
2022-08-08T09:42:43.821Z,100127.75
2022-08-08T09:45:54.187Z,100136.13
2022-08-08T09:48:21.389Z,100128.31
2022-08-08T09:50:56.278Z,100136.03
2022-08-08T09:53:53.214Z,100147.06
2022-08-08T09:56:24.804Z,100144.00
2022-08-08T09:59:50.266Z,100156.75
2022-08-08T10:02:12.875Z,100169.66
2022-08-08T10:04:48.031Z,100165.50
2022-08-08T10:07:17.378Z,100170.97
2022-08-08T10:10:00.701Z,100171.13
2022-08-08T10:12:38.522Z,100163.06
2022-08-08T10:15:24.435Z,100161.63
2022-08-08T10:18:06.431Z,100153.19
2022-08-08T10:20:58.066Z,100155.59
2022-08-08T10:23:57.865Z,100151.56
2022-08-08T10:26:52.310Z,100160.16
2022-08-08T10:29:56.990Z,100155.09
2022-08-08T10:32:36.346Z,100155.69
2022-08-08T10:36:08.537Z,100152.88
2022-08-08T10:38:07.878Z,100144.25
2022-08-08T10:40:39.170Z,100162.63
2022-08-08T10:43:07.065Z,100169.72
2022-08-08T10:45:56.914Z,100175.34
2022-08-08T10:48:57.714Z,100173.66
2022-08-08T10:51:26.536Z,100168.22
2022-08-08T10:54:00.131Z,100183.22
2022-08-08T10:56:34.922Z,100181.38
2022-08-08T10:59:14.359Z,100177.84
2022-08-08T11:01:49.552Z,100180.31
2022-08-08T11:04:29.575Z,100181.97
2022-08-08T11:07:01.234Z,100185.75
2022-08-08T11:09:32.327Z,100183.88
2022-08-08T11:12:12.753Z,100180.69
2022-08-08T11:15:14.466Z,100181.59
2022-08-08T11:17:59.445Z,100187.00
2022-08-08T11:20:29.711Z,100186.41
2022-08-08T11:23:01.264Z,100188.09
2022-08-08T11:25:53.287Z,100202.09
2022-08-08T11:28:29.337Z,100186.75
2022-08-08T11:31:03.778Z,100187.50
2022-08-08T11:33:51.096Z,100179.47
2022-08-08T11:36:20.806Z,100179.28
2022-08-08T11:38:55.655Z,100187.31
2022-08-08T11:41:27.561Z,100190.53
2022-08-08T11:43:58.397Z,100187.00
2022-08-08T11:46:31.316Z,100181.94
2022-08-08T11:49:08.706Z,100188.69
2022-08-08T11:51:39.879Z,100183.63
2022-08-08T11:54:27.284Z,100178.06
2022-08-08T11:57:17.115Z,100187.59
2022-08-08T12:00:01.139Z,100182.72
2022-08-08T12:03:00.045Z,100173.34
2022-08-08T12:05:41.819Z,100182.63
2022-08-08T12:08:11.817Z,100191.03
2022-08-08T12:10:50.922Z,100201.84
2022-08-08T12:13:33.464Z,100200.44
2022-08-08T12:16:15.671Z,100192.19
2022-08-08T12:18:46.455Z,100200.50
2022-08-08T12:21:59.383Z,100201.00
2022-08-08T12:24:29.914Z,100201.63
2022-08-08T12:27:00.167Z,100209.63
2022-08-08T12:29:40.172Z,100200.88
2022-08-08T12:32:13.615Z,100202.88
2022-08-08T12:34:50.165Z,100215.16
2022-08-08T12:37:41.541Z,100215.97
2022-08-08T12:40:22.603Z,100205.13
2022-08-08T12:42:55.820Z,100203.31
2022-08-08T12:46:00.014Z,100206.09
2022-08-08T12:48:37.574Z,100200.38
2022-08-08T12:51:07.891Z,100197.88
2022-08-08T12:53:58.492Z,100191.03
2022-08-08T12:56:44.567Z,100194.97
2022-08-08T12:59:16.722Z,100205.13
2022-08-08T13:01:53.404Z,100192.13
2022-08-08T13:04:28.941Z,100183.03
2022-08-08T13:07:02.907Z,100188.00
2022-08-08T13:10:05.014Z,100185.38
2022-08-08T13:12:46.584Z,100183.97
2022-08-08T13:15:22.366Z,100179.09
2022-08-08T13:18:09.990Z,100179.94
2022-08-08T13:20:48.906Z,100180.38
2022-08-08T13:23:37.035Z,100172.91
2022-08-08T13:26:14.738Z,100162.56
2022-08-08T13:28:45.793Z,100167.28
2022-08-08T13:31:17.166Z,100155.50
2022-08-08T13:33:49.901Z,100159.41
2022-08-08T13:36:25.715Z,100159.91
2022-08-08T13:38:59.506Z,100156.72
2022-08-08T13:41:37.549Z,100158.34
2022-08-08T13:44:10.780Z,100158.47
2022-08-08T13:46:39.212Z,100153.69
2022-08-08T13:50:36.296Z,100157.81
2022-08-08T13:52:06.946Z,100155.25
2022-08-08T13:54:44.135Z,100148.41
2022-08-08T13:57:16.757Z,100155.59
2022-08-08T13:59:48.538Z,100150.88
2022-08-08T14:02:33.141Z,100150.63
2022-08-08T14:05:09.608Z,100143.13
2022-08-08T14:07:53.166Z,100147.94
2022-08-08T14:10:33.348Z,100148.53
2022-08-08T14:13:30.819Z,100146.41
2022-08-08T14:16:04.253Z,100146.47
2022-08-08T14:18:36.502Z,100142.44
2022-08-08T14:21:20.803Z,100135.09
2022-08-08T14:24:07.252Z,100131.41
2022-08-08T14:26:46.175Z,100134.06
2022-08-08T14:29:30.653Z,100126.47
2022-08-08T14:32:09.964Z,100114.50
2022-08-08T14:34:43.268Z,100108.09
2022-08-08T14:37:17.178Z,100113.06
2022-08-08T14:39:54.198Z,100113.91
2022-08-08T14:42:55.316Z,100107.97
2022-08-08T14:45:33.167Z,100113.91
2022-08-08T14:48:17.903Z,100108.44
2022-08-08T14:51:07.995Z,100103.88
2022-08-08T14:53:56.160Z,100109.56
2022-08-08T14:56:25.990Z,100113.19
2022-08-08T14:58:54.969Z,100110.41
2022-08-08T15:01:37.569Z,100113.84
2022-08-08T15:04:10.885Z,100107.81
2022-08-08T15:06:39.132Z,100098.25
2022-08-08T15:09:10.341Z,100103.03
2022-08-08T15:11:46.059Z,100104.44
2022-08-08T15:14:25.258Z,100092.00
2022-08-08T15:16:57.143Z,100100.31
2022-08-08T15:19:27.729Z,100103.03
2022-08-08T15:21:55.686Z,100093.06
2022-08-08T15:24:31.842Z,100096.25
2022-08-08T15:27:12.052Z,100090.00
2022-08-08T15:29:51.012Z,100080.19
2022-08-08T15:32:23.195Z,100083.47
2022-08-08T15:34:57.117Z,100084.66
2022-08-08T15:37:30.348Z,100080.47
2022-08-08T15:39:58.473Z,100078.41
2022-08-08T15:42:32.392Z,100081.38
2022-08-08T15:45:02.424Z,100079.44
2022-08-08T15:47:32.227Z,100076.31
2022-08-08T15:49:59.842Z,100079.56
2022-08-08T15:52:27.409Z,100079.00
2022-08-08T15:54:55.095Z,100078.22
2022-08-08T15:57:23.213Z,100078.56
2022-08-08T16:00:05.913Z,100081.22
2022-08-08T16:02:44.231Z,100090.13
2022-08-08T16:05:19.855Z,100079.13
2022-08-08T16:07:53.150Z,100079.88
2022-08-08T16:13:10.007Z,100073.81
2022-08-08T16:13:34.139Z,100076.78
2022-08-08T16:16:12.818Z,100075.00
2022-08-08T16:18:56.284Z,100074.69
2022-08-08T16:21:32.098Z,100076.47
2022-08-08T16:24:12.840Z,100076.59
2022-08-08T16:26:42.608Z,100079.72
2022-08-08T16:29:16.279Z,100074.22
2022-08-08T16:31:49.126Z,100078.94
2022-08-08T16:34:20.873Z,100075.69
2022-08-08T16:36:52.097Z,100074.81
2022-08-08T16:39:59.981Z,100068.13
2022-08-08T16:42:18.004Z,100075.72
2022-08-08T16:44:54.319Z,100072.75
2022-08-08T16:47:41.491Z,100067.69
2022-08-08T16:50:14.698Z,100067.84
2022-08-08T16:55:04.080Z,100065.63
2022-08-08T16:55:53.500Z,100060.84
2022-08-08T16:58:25.804Z,100061.59
2022-08-08T17:00:59.113Z,100063.69
2022-08-08T17:03:59.985Z,100078.81
2022-08-08T17:06:36.362Z,100074.94
2022-08-08T17:09:07.377Z,100069.56
2022-08-08T17:11:49.181Z,100076.25
2022-08-08T17:14:26.882Z,100085.75
2022-08-08T17:16:58.262Z,100094.94
2022-08-08T17:19:29.007Z,100096.09
2022-08-08T17:22:01.050Z,100100.09
2022-08-08T17:24:30.713Z,100097.72
2022-08-08T17:27:00.038Z,100094.56
2022-08-08T17:29:28.607Z,100105.09
2022-08-08T17:32:07.735Z,100101.81
2022-08-08T17:35:44.434Z,100097.34
2022-08-08T17:37:26.188Z,100109.75
2022-08-08T17:40:06.075Z,100116.69
2022-08-08T17:42:41.183Z,100123.34
2022-08-08T17:45:22.712Z,100117.97
2022-08-08T17:47:51.781Z,100125.34
2022-08-08T17:50:21.415Z,100127.22
2022-08-08T17:52:50.007Z,100129.13
2022-08-08T17:56:06.453Z,100125.16
2022-08-08T17:58:04.557Z,100137.69
2022-08-08T18:00:32.165Z,100137.94
2022-08-08T18:03:09.203Z,100149.31
2022-08-08T18:05:48.470Z,100151.41
2022-08-08T18:08:24.754Z,100152.81
2022-08-08T18:11:15.136Z,100151.16
2022-08-08T18:13:46.895Z,100162.66
2022-08-08T18:16:16.831Z,100158.97
2022-08-08T18:18:52.602Z,100165.22
2022-08-08T18:21:34.562Z,100167.53
2022-08-08T18:24:19.482Z,100167.59
2022-08-08T18:26:54.231Z,100172.47
2022-08-08T18:29:30.112Z,100181.50
2022-08-08T18:32:09.071Z,100190.91
2022-08-08T18:34:40.402Z,100193.78
2022-08-08T18:37:17.720Z,100196.25
2022-08-08T18:39:58.597Z,100195.91
2022-08-08T18:42:25.948Z,100187.94
2022-08-08T18:44:57.244Z,100198.81
2022-08-08T18:47:31.446Z,100195.63
2022-08-08T18:50:03.026Z,100197.34
2022-08-08T18:52:34.663Z,100209.88
2022-08-08T18:55:10.814Z,100209.38
2022-08-08T18:57:43.481Z,100208.88
2022-08-08T19:00:20.307Z,100225.75
2022-08-08T19:02:55.517Z,100227.25
2022-08-08T19:05:34.743Z,100223.75
2022-08-08T19:08:25.899Z,100222.47
2022-08-08T19:10:59.509Z,100221.03
2022-08-08T19:13:52.517Z,100227.38
2022-08-08T19:16:20.751Z,100227.41
2022-08-08T19:19:02.255Z,100227.41
2022-08-08T19:21:33.870Z,100218.63
2022-08-08T19:24:38.755Z,100228.72
2022-08-08T19:27:07.150Z,100233.75
2022-08-08T19:29:42.438Z,100233.03
2022-08-08T19:32:19.539Z,100242.06
2022-08-08T19:34:51.339Z,100248.06
2022-08-08T19:37:42.299Z,100252.38
2022-08-08T19:40:16.120Z,100247.88
2022-08-08T19:42:48.977Z,100246.59
2022-08-08T19:45:58.829Z,100253.69
2022-08-08T19:48:28.747Z,100255.91
2022-08-08T19:51:00.784Z,100254.06
2022-08-08T19:53:53.204Z,100255.53
2022-08-08T19:56:25.900Z,100242.25
2022-08-08T19:59:07.501Z,100250.69
2022-08-08T20:02:02.568Z,100249.22
2022-08-08T20:04:23.914Z,100243.22
2022-08-08T20:06:51.812Z,100243.22
2022-08-08T20:09:22.691Z,100249.56
2022-08-08T20:11:52.817Z,100242.84
2022-08-08T20:14:35.683Z,100241.56
2022-08-08T20:17:12.937Z,100241.75
2022-08-08T20:19:56.416Z,100244.56
2022-08-08T20:22:31.020Z,100243.66
2022-08-08T20:25:00.517Z,100244.59
2022-08-08T20:27:32.861Z,100248.88
2022-08-08T20:30:53.614Z,100240.84
2022-08-08T20:32:59.970Z,100242.91
2022-08-08T20:35:32.819Z,100235.63
2022-08-08T20:38:15.462Z,100233.00
2022-08-08T20:40:51.055Z,100238.78
2022-08-08T20:43:23.054Z,100243.84
2022-08-08T20:46:07.802Z,100243.28
2022-08-08T20:48:36.956Z,100243.28
2022-08-08T20:51:06.065Z,100236.56
2022-08-08T20:54:00.176Z,100241.41
2022-08-08T20:56:34.972Z,100244.22
2022-08-08T20:59:08.819Z,100235.06
2022-08-08T21:02:05.436Z,100242.16
2022-08-08T21:04:28.841Z,100248.88
2022-08-08T21:06:58.207Z,100247.78
2022-08-08T21:09:31.818Z,100247.78
2022-08-08T21:12:16.619Z,100238.22
2022-08-08T21:14:48.989Z,100253.00
2022-08-08T21:17:16.650Z,100254.81
2022-08-08T21:19:47.190Z,100240.25
2022-08-08T21:22:15.777Z,100243.97
2022-08-08T21:30:17.839Z,100244.16
2022-08-08T21:32:51.567Z,100242.09
2022-08-08T21:36:16.067Z,100240.59
2022-08-08T21:38:16.551Z,100243.94
2022-08-08T21:40:55.827Z,100252.16
2022-08-08T21:43:33.159Z,100249.53
2022-08-08T21:48:08.717Z,100250.63
2022-08-08T21:49:01.190Z,100254.13
2022-08-08T21:54:18.297Z,100240.69
2022-08-08T21:54:53.679Z,100254.50
2022-08-08T21:57:10.321Z,100259.56
2022-08-08T22:00:01.312Z,100242.94
2022-08-08T22:02:25.807Z,100246.84
2022-08-08T22:04:55.927Z,100246.44
2022-08-08T22:07:40.176Z,100251.84
2022-08-08T22:10:18.610Z,100248.81
2022-08-08T22:13:17.985Z,100259.78
2022-08-08T22:15:58.856Z,100249.72
2022-08-08T22:18:34.489Z,100254.91
2022-08-08T22:21:11.108Z,100252.97
2022-08-08T22:23:50.636Z,100258.13
2022-08-08T22:26:28.625Z,100246.22
2022-08-08T22:29:04.259Z,100251.59
2022-08-08T22:31:43.260Z,100248.81
2022-08-08T22:34:14.964Z,100240.25
2022-08-08T22:36:43.158Z,100228.19
2022-08-08T22:39:19.242Z,100245.34
2022-08-08T22:41:49.272Z,100241.44
2022-08-08T22:44:19.829Z,100244.69
2022-08-08T22:46:47.311Z,100252.09
2022-08-08T22:49:20.215Z,100262.09
2022-08-08T22:51:48.297Z,100256.31
2022-08-08T22:54:32.025Z,100257.56
2022-08-08T22:57:11.503Z,100259.94
2022-08-08T22:59:58.916Z,100268.28
2022-08-08T23:02:30.236Z,100255.59
2022-08-08T23:05:04.859Z,100261.13
2022-08-08T23:07:49.225Z,100252.00
2022-08-08T23:10:25.279Z,100270.22
2022-08-08T23:12:56.121Z,100263.31
2022-08-08T23:16:40.983Z,100264.00
2022-08-08T23:18:13.244Z,100243.53
2022-08-08T23:20:44.112Z,100265.47
2022-08-08T23:23:17.788Z,100260.25
2022-08-08T23:25:52.887Z,100259.38
2022-08-08T23:28:23.915Z,100271.84
2022-08-08T23:30:51.473Z,100268.03
2022-08-08T23:34:15.261Z,100263.75
2022-08-08T23:36:09.308Z,100259.34
2022-08-08T23:38:44.151Z,100265.28
2022-08-08T23:41:22.845Z,100268.75
2022-08-08T23:43:56.773Z,100264.56
2022-08-08T23:49:06.771Z,100265.28
2022-08-08T23:49:18.996Z,100267.13
2022-08-08T23:52:05.153Z,100262.31
2022-08-08T23:54:43.569Z,100260.38
2022-08-08T23:57:27.441Z,100265.22
